Time;durP1;ratioP1;P1;durP2;ratioP2;P2;SDS_P1;SDS_P2;PMS_P1;PMS_P2;Temp;Humidity;BMP_temperature;BMP_pressure;BME280_temperature;BME280_humidity;BME280_pressure;Samples;Min_cycle;Max_cycle;Signal;HPM_P1;HPM_P2
2021/04/18 00:01:58;;;;;;;9.43;5.43;;;5.50;90.00;;;4.43;73.71;98744.03;5031016;28;20641;-78
2021/04/18 00:04:24;;;;;;;6.32;5.15;;;5.60;89.80;;;4.42;73.25;98743.22;5030361;28;20486;-78
2021/04/18 00:06:50;;;;;;;6.55;5.30;;;5.60;89.20;;;4.51;72.52;98741.34;5024634;28;20409;-78
2021/04/18 00:09:16;;;;;;;6.85;5.00;;;5.60;88.50;;;4.65;72.17;98728.25;5027150;28;20496;-78
2021/04/18 00:11:43;;;;;;;7.05;4.88;;;5.80;88.00;;;4.94;72.31;98740.53;5025968;28;20412;-78
2021/04/18 00:14:10;;;;;;;6.22;4.65;;;6.00;88.40;;;4.92;70.19;98733.84;5026006;28;20417;-78
2021/04/18 00:16:37;;;;;;;11.93;4.88;;;6.10;85.80;;;4.67;71.33;98726.22;5027805;28;20389;-78
2021/04/18 00:19:05;;;;;;;6.97;5.47;;;6.00;86.30;;;4.56;72.34;98733.75;5026478;28;20420;-78
2021/04/18 00:21:33;;;;;;;6.47;4.90;;;5.70;87.80;;;4.67;72.01;98728.84;5027970;28;20444;-77
2021/04/18 00:23:59;;;;;;;7.40;4.87;;;5.80;87.80;;;4.78;71.17;98726.78;5026214;28;20544;-78
2021/04/18 00:26:26;;;;;;;6.85;5.45;;;5.90;87.00;;;4.78;70.88;98722.38;5028762;28;20404;-78
2021/04/18 00:28:52;;;;;;;7.90;5.00;;;5.90;86.30;;;4.78;70.71;98727.59;5027962;28;20495;-78
2021/04/18 00:31:19;;;;;;;6.30;5.00;;;5.90;86.30;;;4.79;70.70;98718.75;5028388;28;20454;-78
2021/04/18 00:33:45;;;;;;;7.35;4.95;;;5.90;86.20;;;4.75;71.09;98725.34;5027719;28;20413;-78
2021/04/18 00:36:12;;;;;;;7.82;5.97;;;5.90;86.50;;;4.71;70.19;98710.97;5028001;28;20822;-78
2021/04/18 00:38:38;;;;;;;8.50;5.25;;;5.90;85.70;;;4.79;70.07;98715.31;5026678;28;20420;-78
2021/04/18 00:41:04;;;;;;;8.60;4.75;;;5.90;86.00;;;4.81;70.12;98711.50;5027628;28;20813;-78
2021/04/18 00:43:30;;;;;;;7.82;5.13;;;6.00;85.80;;;4.77;70.66;98712.84;5027297;28;20535;-78
2021/04/18 00:45:57;;;;;;;8.07;5.50;;;5.90;86.10;;;4.77;71.13;98705.00;5027023;28;20639;-78
2021/04/18 00:48:23;;;;;;;6.57;5.03;;;5.90;86.80;;;4.77;71.19;98710.25;5027167;28;20420;-77
2021/04/18 00:50:49;;;;;;;7.75;5.10;;;5.90;86.70;;;4.79;71.24;98712.69;5025906;28;20432;-77
2021/04/18 00:53:16;;;;;;;6.97;5.38;;;5.90;86.80;;;4.71;70.75;98707.53;5020898;28;20730;-78
2021/04/18 00:55:43;;;;;;;9.77;5.55;;;5.90;86.30;;;4.68;71.31;98712.13;5025217;28;20416;-77
2021/04/18 00:58:11;;;;;;;8.90;5.57;;;5.90;86.90;;;4.68;70.88;98716.56;5021280;28;20527;-78
2021/04/18 01:00:38;;;;;;;9.38;5.85;;;5.80;86.40;;;4.68;71.23;98714.75;5023117;28;20452;-78
2021/04/18 01:03:06;;;;;;;9.25;5.55;;;5.80;86.50;;;4.69;71.15;98707.69;5025787;28;20429;-78
2021/04/18 01:05:33;;;;;;;9.50;5.70;;;5.80;86.60;;;4.67;71.69;98715.75;5026447;28;20416;-78
2021/04/18 01:07:59;;;;;;;9.05;5.90;;;5.80;87.10;;;4.63;71.06;98714.50;5023729;28;20827;-77
2021/04/18 01:10:26;;;;;;;8.85;5.25;;;5.80;86.60;;;4.60;70.62;98703.53;5024557;28;20492;-78
2021/04/18 01:12:52;;;;;;;8.20;5.57;;;5.80;86.10;;;4.62;70.88;98704.19;5020222;28;20417;-77
2021/04/18 01:15:19;;;;;;;7.65;6.13;;;5.80;86.50;;;4.62;71.14;98705.00;5020855;28;20443;-78
2021/04/18 01:17:46;;;;;;;7.95;5.75;;;5.80;86.80;;;4.59;71.68;98705.34;5027236;28;20492;-78
2021/04/18 01:20:17;;;;;;;7.20;5.57;;;5.80;87.20;;;4.60;71.71;98703.53;5026753;28;20440;-78
2021/04/18 01:22:45;;;;;;;10.32;6.20;;;5.70;87.30;;;4.56;71.93;98703.09;5026608;28;20467;-78
2021/04/18 01:25:13;;;;;;;10.13;5.88;;;5.70;87.50;;;4.57;71.96;98704.72;5027418;28;20409;-78
2021/04/18 01:27:42;;;;;;;9.50;6.07;;;5.70;87.70;;;4.60;72.55;98695.66;5031264;28;20431;-77
2021/04/18 01:30:12;;;;;;;6.72;5.43;;;5.70;88.00;;;4.58;72.39;98695.88;5035609;28;20421;-78
2021/04/18 01:32:41;;;;;;;8.23;5.97;;;5.70;88.00;;;4.59;71.63;98689.59;5034006;28;20483;-77
2021/04/18 01:35:09;;;;;;;8.70;6.43;;;5.70;87.20;;;4.61;71.35;98686.81;5042076;28;20415;-78
2021/04/18 01:37:36;;;;;;;9.75;6.10;;;5.70;87.20;;;4.62;71.65;98685.81;5022537;28;20754;-76
2021/04/18 01:40:05;;;;;;;8.13;5.75;;;5.80;87.20;;;4.67;71.50;98689.53;5021199;28;20401;-79
2021/04/18 01:42:33;;;;;;;8.48;5.93;;;5.80;87.20;;;4.81;71.29;98684.47;5024008;28;20430;-78
2021/04/18 01:44:59;;;;;;;8.23;6.25;;;5.90;87.10;;;4.69;71.22;98684.09;5022967;28;20424;-77
2021/04/18 01:47:26;;;;;;;8.35;6.18;;;5.90;86.50;;;4.80;71.48;98681.03;5022021;28;20422;-77
2021/04/18 01:49:52;;;;;;;9.60;6.85;;;5.90;87.30;;;4.84;71.76;98678.84;5024723;28;20579;-78
2021/04/18 01:52:18;;;;;;;8.02;6.22;;;5.90;87.40;;;4.77;71.47;98681.38;5025512;28;20421;-77
2021/04/18 01:54:44;;;;;;;11.38;6.78;;;6.00;87.20;;;4.44;73.41;98682.72;5028577;28;20413;-79
2021/04/18 01:57:11;;;;;;;10.70;6.80;;;5.70;88.80;;;4.41;73.23;98681.31;5030970;28;20428;-77
2021/04/18 01:59:37;;;;;;;10.57;6.43;;;5.60;88.90;;;4.54;72.43;98675.41;5033795;28;20413;-77
2021/04/18 02:02:08;;;;;;;8.77;6.75;;;5.60;88.50;;;4.57;73.02;98682.94;5033992;28;20405;-78
2021/04/18 02:04:35;;;;;;;10.05;7.28;;;5.70;88.60;;;4.55;72.97;98685.72;5032919;28;20417;-77
2021/04/18 02:07:03;;;;;;;9.18;6.80;;;5.70;88.80;;;4.60;72.66;98675.50;5033589;28;20431;-77
2021/04/18 02:09:32;;;;;;;8.82;6.13;;;5.80;88.60;;;4.60;72.71;98683.38;5032652;28;20411;-77
2021/04/18 02:12:00;;;;;;;11.05;6.85;;;5.80;88.50;;;4.53;72.78;98682.47;5030437;28;20439;-78
2021/04/18 02:14:27;;;;;;;9.55;6.72;;;5.70;88.20;;;4.53;72.34;98679.84;5030149;28;20436;-78
2021/04/18 02:16:54;;;;;;;10.70;7.18;;;5.70;88.00;;;4.50;72.17;98682.03;5030495;28;20508;-78
2021/04/18 02:19:20;;;;;;;9.73;6.82;;;5.60;87.70;;;4.45;72.25;98679.13;5025524;28;20467;-78
2021/04/18 02:21:47;;;;;;;10.18;7.25;;;5.60;87.90;;;4.41;72.21;98680.47;5027390;28;20416;-78
2021/04/18 02:24:14;;;;;;;8.57;6.60;;;5.60;87.80;;;4.59;72.23;98673.06;5024947;28;20847;-78
2021/04/18 02:26:40;;;;;;;8.75;6.60;;;5.60;88.80;;;4.60;72.04;98678.13;5026229;28;20444;-78
2021/04/18 02:29:07;;;;;;;8.40;6.60;;;5.80;87.90;;;4.56;71.92;98668.19;5025898;28;20416;-78
2021/04/18 02:31:34;;;;;;;9.35;7.38;;;5.70;87.50;;;4.56;72.30;98670.81;5023603;28;20405;-78
2021/04/18 02:34:00;;;;;;;10.38;7.00;;;5.70;87.90;;;4.46;71.80;98678.13;5023153;28;20423;-78
2021/04/18 02:36:30;;;;;;;8.67;7.00;;;5.70;87.40;;;4.45;72.45;98679.13;5024299;28;20543;-78
2021/04/18 02:38:56;;;;;;;11.23;7.13;;;5.60;87.90;;;4.42;72.26;98684.75;5022289;28;20512;-78
2021/04/18 02:41:23;;;;;;;10.63;7.55;;;5.60;88.00;;;4.43;72.10;98689.81;5023336;28;20405;-78
2021/04/18 02:43:49;;;;;;;10.18;7.13;;;5.60;87.70;;;4.44;72.31;98683.53;5023388;28;20467;-78
2021/04/18 02:46:16;;;;;;;9.60;7.22;;;5.60;88.00;;;4.42;72.41;98685.56;5021672;28;20499;-78
2021/04/18 02:48:43;;;;;;;9.07;7.00;;;5.60;88.00;;;4.41;72.00;98681.31;5020386;28;20421;-77
2021/04/18 02:51:09;;;;;;;10.57;7.32;;;5.60;87.50;;;4.43;72.02;98679.31;5023530;28;20436;-77
2021/04/18 02:53:35;;;;;;;9.93;7.17;;;5.60;87.80;;;4.45;71.84;98681.75;5023116;28;20496;-78
2021/04/18 02:56:02;;;;;;;9.00;6.70;;;5.60;87.60;;;4.47;72.66;98683.19;5028039;28;20461;-79
2021/04/18 02:58:29;;;;;;;13.45;6.88;;;5.60;88.20;;;4.50;72.38;98680.22;5025531;28;20424;-78
2021/04/18 03:00:55;;;;;;;9.18;6.43;;;5.60;88.20;;;4.46;71.79;98680.75;5024894;28;20401;-78
2021/04/18 03:03:21;;;;;;;9.10;6.80;;;5.60;87.30;;;4.43;71.82;98673.25;5022486;28;20451;-78
2021/04/18 03:05:48;;;;;;;11.13;6.82;;;5.60;87.20;;;4.46;72.19;98680.75;5017454;28;20448;-77
2021/04/18 03:08:15;;;;;;;9.02;6.93;;;5.60;87.90;;;4.44;72.00;98680.91;5017921;28;20811;-79
2021/04/18 03:10:41;;;;;;;14.05;7.38;;;5.60;87.60;;;4.48;71.61;98681.38;5021125;28;20404;-79
2021/04/18 03:13:07;;;;;;;12.48;7.60;;;5.60;87.40;;;4.50;71.75;98676.78;5022724;28;20422;-78
2021/04/18 03:15:33;;;;;;;11.30;7.18;;;5.60;87.40;;;4.49;71.80;98670.72;5027996;28;20838;-78
2021/04/18 03:18:00;;;;;;;10.68;7.50;;;5.60;87.20;;;4.43;71.74;98674.06;5027975;28;20439;-78
2021/04/18 03:20:26;;;;;;;10.27;7.32;;;5.60;87.20;;;4.45;72.11;98674.69;5027371;28;20665;-79
2021/04/18 03:22:53;;;;;;;11.35;7.65;;;5.60;87.80;;;4.44;71.78;98672.25;5022701;28;20428;-79
2021/04/18 03:25:19;;;;;;;11.50;7.10;;;5.60;87.40;;;4.47;71.92;98669.28;5021401;28;20779;-78
2021/04/18 03:27:45;;;;;;;11.05;7.50;;;5.60;87.50;;;4.42;72.25;98671.63;5019334;28;20440;-78
2021/04/18 03:30:13;;;;;;;10.02;7.15;;;5.60;87.90;;;4.42;71.84;98675.06;5020086;28;20409;-78
2021/04/18 03:32:39;;;;;;;13.57;7.50;;;5.60;87.40;;;4.41;71.76;98672.63;5019935;28;20435;-78
2021/04/18 03:35:07;;;;;;;10.32;7.10;;;5.60;87.40;;;4.43;72.06;98671.47;5021736;28;20719;-78
2021/04/18 03:37:34;;;;;;;9.32;6.80;;;5.60;87.90;;;4.43;71.76;98668.84;5018998;28;20424;-78
2021/04/18 03:40:02;;;;;;;12.53;7.50;;;5.60;87.40;;;4.41;71.94;98665.56;5019213;28;20505;-78
2021/04/18 03:42:28;;;;;;;10.40;6.95;;;5.60;87.60;;;4.43;72.01;98668.03;5020321;28;20430;-78
2021/04/18 03:44:55;;;;;;;11.90;7.30;;;5.60;87.80;;;4.45;71.78;98668.63;5020253;28;20409;-82
2021/04/18 03:47:21;;;;;;;11.57;8.02;;;5.60;87.50;;;4.42;71.99;98669.81;5019312;28;20428;-79
2021/04/18 03:49:47;;;;;;;10.93;7.47;;;5.60;87.70;;;4.52;71.84;98672.16;5026983;28;20404;-79
2021/04/18 03:52:13;;;;;;;11.23;8.07;;;5.60;87.70;;;4.49;72.20;98664.66;5029971;28;22049;-79
2021/04/18 03:54:39;;;;;;;9.80;7.55;;;5.60;87.60;;;4.58;71.76;98667.03;5030344;28;20411;-79
2021/04/18 03:57:07;;;;;;;9.57;7.85;;;5.70;87.60;;;4.48;71.77;98669.09;5028810;28;20838;-79
2021/04/18 03:59:33;;;;;;;12.13;7.77;;;5.70;87.40;;;4.18;73.28;98668.25;5028525;28;20439;-78
2021/04/18 04:01:59;;;;;;;13.38;8.50;;;5.40;88.60;;;4.12;74.08;98674.22;5028718;28;20496;-79
2021/04/18 04:04:25;;;;;;;11.48;8.95;;;5.30;90.00;;;4.16;74.00;98669.41;5029087;28;20707;-79
2021/04/18 04:06:52;;;;;;;11.77;8.50;;;5.30;90.00;;;4.23;73.78;98670.34;5027345;28;20504;-79
2021/04/18 04:09:18;;;;;;;11.60;8.32;;;5.40;89.90;;;4.23;74.21;98665.09;5029135;28;20504;-80
2021/04/18 04:11:45;;;;;;;10.40;8.13;;;5.40;90.00;;;4.14;73.97;98674.03;5032432;28;20400;-79
2021/04/18 04:14:12;;;;;;;12.43;8.43;;;5.30;89.80;;;4.00;74.85;98670.38;5033008;28;20474;-79
2021/04/18 04:16:38;;;;;;;11.73;8.53;;;5.20;90.20;;;4.04;74.92;98669.06;5031515;28;20442;-79
2021/04/18 04:19:04;;;;;;;13.00;8.70;;;5.20;90.40;;;3.91;75.31;98671.44;5030303;28;20424;-79
2021/04/18 04:21:30;;;;;;;13.68;9.23;;;5.10;90.40;;;3.84;75.59;98678.38;5030248;28;20474;-79
2021/04/18 04:23:56;;;;;;;13.23;9.50;;;5.10;90.60;;;3.80;76.54;98677.13;5029544;28;20433;-79
2021/04/18 04:26:23;;;;;;;10.93;8.82;;;5.00;91.10;;;3.86;76.06;98682.47;5030234;28;20423;-79
2021/04/18 04:28:49;;;;;;;15.05;9.25;;;5.00;91.00;;;3.96;75.53;98681.41;5028339;28;20420;-78
2021/04/18 04:31:16;;;;;;;15.50;9.55;;;5.10;90.80;;;3.94;75.61;98676.34;5024692;28;20461;-78
2021/04/18 04:33:42;;;;;;;12.48;9.43;;;5.10;90.70;;;3.94;75.93;98684.19;5024542;28;20427;-79
2021/04/18 04:36:08;;;;;;;13.20;9.90;;;5.10;90.90;;;3.96;76.22;98689.25;5025698;28;20428;-78
2021/04/18 04:38:34;;;;;;;15.25;9.50;;;5.10;91.00;;;3.99;75.67;98686.28;5033941;28;20487;-78
2021/04/18 04:41:01;;;;;;;13.02;9.57;;;5.20;90.80;;;3.87;76.28;98689.34;5031275;28;20405;-79
2021/04/18 04:43:27;;;;;;;12.30;9.75;;;5.10;90.90;;;3.85;76.23;98693.09;5024016;28;20455;-78
2021/04/18 04:45:53;;;;;;;15.05;10.07;;;5.00;91.20;;;4.08;75.92;98693.06;5025812;28;20411;-78
2021/04/18 04:48:21;;;;;;;14.02;9.45;;;5.10;91.20;;;4.27;75.79;98685.53;5033979;28;20423;-79
2021/04/18 04:50:47;;;;;;;12.97;8.90;;;5.30;91.10;;;4.32;74.71;98690.22;5037684;28;20400;-79
2021/04/18 04:53:13;;;;;;;11.20;9.10;;;5.50;90.50;;;4.37;74.28;98690.50;5037299;28;20417;-79
2021/04/18 04:55:42;;;;;;;13.38;9.13;;;5.50;90.20;;;4.37;73.83;98690.50;5036868;28;20401;-79
2021/04/18 04:58:08;;;;;;;13.13;9.13;;;5.50;89.80;;;4.40;73.45;98691.97;5032026;28;20447;-79
2021/04/18 05:00:34;;;;;;;12.57;8.63;;;5.50;89.40;;;4.42;73.70;98690.78;5033550;28;20423;-80
2021/04/18 05:03:00;;;;;;;15.13;9.07;;;5.50;89.70;;;4.42;73.26;98689.97;5031167;28;20475;-79
2021/04/18 05:05:28;;;;;;;11.35;9.10;;;5.60;89.10;;;4.42;73.14;98685.56;5030053;28;20408;-79
2021/04/18 05:07:54;;;;;;;12.07;8.77;;;5.60;89.00;;;4.42;72.87;98682.94;5028754;28;20412;-79
2021/04/18 05:10:20;;;;;;;12.05;8.85;;;5.50;88.70;;;4.39;73.04;98688.53;5027867;28;20448;-79
2021/04/18 05:12:46;;;;;;;15.10;8.93;;;5.60;88.70;;;4.45;72.35;98692.22;5028299;28;20420;-79
2021/04/18 05:15:13;;;;;;;11.65;8.30;;;5.60;88.40;;;4.46;72.26;98689.44;5025809;28;20412;-79
2021/04/18 05:17:39;;;;;;;9.27;8.00;;;5.60;88.20;;;4.47;71.54;98693.69;5024470;28;20581;-79
2021/04/18 05:20:07;;;;;;;12.30;8.13;;;5.60;87.40;;;4.52;71.08;98693.13;5029607;28;20408;-79
2021/04/18 05:22:34;;;;;;;12.77;8.05;;;5.70;86.80;;;4.62;70.94;98697.13;5032604;28;20500;-79
2021/04/18 05:25:00;;;;;;;11.25;8.10;;;5.70;86.80;;;4.87;71.04;98696.84;5033351;28;20468;-79
2021/04/18 05:27:26;;;;;;;11.27;8.25;;;5.80;87.30;;;4.91;70.98;98700.72;5030102;28;20420;-80
2021/04/18 05:29:53;;;;;;;11.85;8.25;;;6.00;86.90;;;4.80;71.24;98714.31;5028276;28;20669;-79
2021/04/18 05:32:19;;;;;;;11.25;8.13;;;5.90;86.90;;;4.65;70.96;98703.81;5027108;28;20520;-79
2021/04/18 05:34:47;;;;;;;10.90;8.30;;;5.80;86.70;;;4.73;71.40;98708.16;5027373;28;20854;-79
2021/04/18 05:37:13;;;;;;;10.63;8.05;;;5.80;87.20;;;4.88;71.52;98716.84;5030957;28;20451;-79
2021/04/18 05:39:40;;;;;;;16.90;8.10;;;5.90;87.60;;;5.13;70.58;98712.91;5034295;28;20424;-80
2021/04/18 05:42:07;;;;;;;11.20;8.05;;;6.10;86.80;;;5.13;70.51;98717.34;5036550;28;20417;-80
2021/04/18 05:48:15;;;;;;;9.00;7.80;;;6.20;86.00;;;5.02;70.28;98721.28;5034448;28;20476;-80
2021/04/18 05:50:43;;;;;;;11.95;8.10;;;6.10;85.90;;;5.26;70.16;98710.44;5034221;28;20404;-80
2021/04/18 05:53:10;;;;;;;12.53;8.63;;;6.20;86.30;;;4.96;71.07;98720.16;5034166;28;20420;-80
2021/04/18 05:55:37;;;;;;;12.07;8.93;;;6.20;86.40;;;4.47;72.33;98713.84;5033559;28;20438;-79
2021/04/18 05:58:05;;;;;;;11.63;9.48;;;5.80;87.30;;;4.27;73.04;98713.56;5020407;28;20450;-78
2021/04/18 06:00:31;;;;;;;13.80;9.45;;;5.50;88.50;;;4.11;73.73;98718.94;5016934;28;20409;-77
2021/04/18 06:02:58;;;;;;;12.90;9.32;;;5.30;89.30;;;4.09;73.60;98718.28;5016964;28;20436;-77
2021/04/18 06:05:24;;;;;;;11.13;9.02;;;5.30;89.70;;;4.14;73.34;98716.75;5016463;28;20413;-77
2021/04/18 06:07:51;;;;;;;11.52;8.82;;;5.30;89.40;;;4.36;73.15;98709.06;5019969;28;20416;-78
2021/04/18 06:10:17;;;;;;;12.50;9.02;;;5.40;89.30;;;4.44;72.60;98714.19;5019604;28;20467;-77
2021/04/18 06:12:44;;;;;;;10.88;8.30;;;5.60;88.60;;;4.56;72.06;98710.16;5017448;28;20421;-77
2021/04/18 06:15:11;;;;;;;12.93;8.55;;;5.70;88.10;;;4.65;71.84;98706.44;5020323;28;20408;-78
2021/04/18 06:17:39;;;;;;;11.25;8.65;;;5.80;88.10;;;4.67;71.59;98707.88;5020995;28;20534;-77
2021/04/18 06:20:07;;;;;;;11.82;8.90;;;5.80;87.30;;;4.75;71.03;98709.59;5021172;28;20428;-78
2021/04/18 06:22:33;;;;;;;12.93;8.40;;;5.90;87.10;;;4.86;70.73;98713.59;5025382;28;20488;-78
2021/04/18 06:25:00;;;;;;;11.68;9.20;;;5.90;86.70;;;5.02;70.81;98711.59;5030076;28;20786;-77
2021/04/18 06:27:26;;;;;;;12.38;8.63;;;6.10;87.00;;;5.08;70.55;98710.03;5032411;28;20452;-77
2021/04/18 06:29:53;;;;;;;13.90;9.05;;;6.10;86.40;;;5.16;70.23;98711.75;5031777;28;20401;-77
2021/04/18 06:32:19;;;;;;;10.98;8.48;;;6.20;86.30;;;5.15;70.18;98705.69;5025394;28;20786;-77
2021/04/18 06:34:45;;;;;;;12.05;8.55;;;6.30;85.90;;;5.14;70.86;98714.53;5017996;28;20416;-76
2021/04/18 06:37:12;;;;;;;16.05;9.27;;;6.20;86.30;;;5.23;70.49;98707.38;5019824;28;20401;-78
2021/04/18 06:39:38;;;;;;;10.40;8.57;;;6.30;86.30;;;5.37;69.70;98719.66;5020572;28;20443;-78
2021/04/18 06:42:06;;;;;;;15.47;8.73;;;6.40;85.50;;;5.51;69.75;98717.97;5021826;28;20409;-79
2021/04/18 06:44:33;;;;;;;11.53;8.20;;;6.50;86.40;;;5.81;67.61;98722.94;5026104;28;20421;-81
2021/04/18 06:47:01;;;;;;;12.18;8.35;;;6.70;84.00;;;5.78;67.88;98717.28;5024733;28;20404;-78
2021/04/18 06:49:29;;;;;;;11.30;8.85;;;6.80;83.40;;;5.86;67.59;98711.06;5028404;28;20412;-80
2021/04/18 06:51:56;;;;;;;16.08;9.10;;;6.90;83.10;;;5.97;67.21;98716.66;5028814;28;20409;-79
2021/04/18 06:54:23;;;;;;;11.25;8.98;;;7.00;83.00;;;6.08;66.82;98721.41;5028059;28;20826;-80
2021/04/18 06:56:50;;;;;;;11.75;8.65;;;7.10;82.50;;;6.03;66.56;98725.59;5027680;28;20496;-79
2021/04/18 06:59:16;;;;;;;13.10;9.10;;;7.10;82.00;;;5.79;67.32;98721.50;5031478;28;20508;-81
2021/04/18 07:01:43;;;;;;;13.68;9.38;;;6.90;82.10;;;5.75;67.17;98717.63;5035185;28;20396;-80
2021/04/18 07:04:15;;;;;;;11.60;9.30;;;6.80;82.30;;;5.91;67.23;98717.41;5034280;28;21312;-78
2021/04/18 07:06:44;;;;;;;15.20;9.57;;;6.90;82.80;;;5.93;67.44;98717.22;5033150;28;20416;-79
2021/04/18 07:09:12;;;;;;;13.38;9.93;;;7.00;82.70;;;5.89;67.37;98711.53;5030124;28;20504;-78
2021/04/18 07:11:49;;;;;;;13.32;9.55;;;7.00;82.50;;;5.91;66.32;98709.53;5027347;28;20412;-78
2021/04/18 07:14:27;;;;;;;14.30;9.88;;;7.00;81.70;;;6.21;65.66;98708.38;5023738;28;20452;-78
2021/04/18 07:17:04;;;;;;;15.25;9.50;;;7.10;81.50;;;6.49;64.46;98707.56;5024992;28;20420;-79
2021/04/18 07:19:33;;;;;;;14.57;10.10;;;7.30;80.20;;;6.44;64.87;98710.75;5025751;28;20412;-78
2021/04/18 07:22:00;;;;;;;14.35;9.75;;;7.40;80.10;;;6.51;64.06;98708.19;5023010;28;20401;-78
2021/04/18 07:24:27;;;;;;;15.48;10.55;;;7.50;79.40;;;6.50;64.33;98714.44;5024338;28;20440;-79
2021/04/18 07:26:57;;;;;;;18.25;10.05;;;7.50;79.20;;;6.58;63.80;98706.41;5028675;28;20444;-79
2021/04/18 07:29:25;;;;;;;13.07;9.30;;;7.60;79.00;;;6.43;63.86;98711.75;5025115;28;20421;-79
2021/04/18 07:31:52;;;;;;;15.67;10.47;;;7.50;78.40;;;6.40;64.10;98716.59;5023740;28;20413;-78
2021/04/18 07:34:20;;;;;;;13.50;9.57;;;7.40;78.90;;;6.60;63.48;98697.31;5025015;28;20487;-79
2021/04/18 07:36:50;;;;;;;16.60;10.57;;;7.60;78.70;;;6.88;62.43;98706.97;5024137;28;20435;-78
2021/04/18 07:39:18;;;;;;;16.33;9.90;;;7.70;77.90;;;6.78;62.81;98717.84;5022725;28;20721;-79
2021/04/18 07:41:47;;;;;;;16.95;10.07;;;7.80;77.40;;;6.68;62.49;98708.69;5021421;28;20437;-79
2021/04/18 07:44:15;;;;;;;17.08;10.27;;;7.80;77.00;;;6.55;63.04;98707.59;5022320;28;20436;-78
2021/04/18 07:46:47;;;;;;;15.97;9.87;;;7.60;77.30;;;6.48;62.46;98711.19;5021893;28;20420;-79
2021/04/18 07:49:15;;;;;;;16.80;9.90;;;7.60;77.00;;;6.52;62.78;98715.88;5021937;28;20432;-79
2021/04/18 07:51:45;;;;;;;17.23;9.90;;;7.60;77.40;;;6.61;62.22;98703.41;5021032;28;20423;-81
2021/04/18 07:54:13;;;;;;;15.88;9.95;;;7.60;77.00;;;6.53;62.85;98707.00;5027640;28;20409;-82
2021/04/18 07:56:43;;;;;;;16.00;9.63;;;7.60;77.20;;;6.66;62.76;98710.69;5024537;28;20409;-80
2021/04/18 07:59:13;;;;;;;19.95;10.55;;;7.70;77.60;;;6.61;62.95;98704.19;5021413;28;20684;-80
2021/04/18 08:01:40;;;;;;;15.65;9.60;;;7.60;77.50;;;6.78;62.42;98714.41;5023737;28;20409;-80
2021/04/18 08:04:07;;;;;;;12.75;8.63;;;7.70;77.30;;;6.61;61.92;98706.03;5024057;28;20842;-79
2021/04/18 08:06:33;;;;;;;12.30;9.07;;;7.70;75.90;;;6.54;61.94;98710.44;5021373;28;20763;-80
2021/04/18 08:08:59;;;;;;;15.98;9.05;;;7.60;76.20;;;6.61;62.07;98712.06;5018711;28;20436;-79
2021/04/18 08:11:27;;;;;;;13.00;8.45;;;7.60;76.40;;;6.76;62.05;98708.53;5020675;28;20968;-80
2021/04/18 08:13:54;;;;;;;14.98;8.85;;;7.70;76.90;;;6.75;62.45;98712.16;5021730;28;20503;-80
2021/04/18 08:16:30;;;;;;;12.40;8.35;;;7.70;76.80;;;6.55;61.49;98714.66;5022630;28;20427;-80
2021/04/18 08:19:07;;;;;;;15.48;7.55;;;7.70;75.50;;;6.49;60.84;98708.38;5021655;28;20551;-80
2021/04/18 08:21:37;;;;;;;14.93;8.35;;;7.60;74.80;;;6.47;61.43;98704.28;5018829;28;20417;-79
2021/04/18 08:24:06;;;;;;;18.10;8.27;;;7.50;75.70;;;6.41;61.88;98705.88;5018696;28;20523;-79
2021/04/18 08:26:35;;;;;;;16.88;8.82;;;7.40;76.10;;;6.55;61.55;98707.59;5017375;28;20516;-78
2021/04/18 08:29:13;;;;;;;15.85;10.70;;;7.50;76.10;;;6.72;60.94;98707.28;5017376;28;20641;-79
2021/04/18 08:32:09;;;;;;;15.20;6.95;;;7.70;75.70;;;6.69;58.97;98711.09;5021659;28;20416;-80
2021/04/18 08:34:40;;;;;;;17.00;7.30;;;7.70;72.90;;;6.73;58.34;98706.28;5017189;28;20412;-80
2021/04/18 08:37:19;;;;;;;17.90;8.32;;;7.70;72.20;;;6.61;58.57;98717.34;5019722;28;20412;-79
2021/04/18 08:39:46;;;;;;;13.75;7.90;;;7.70;72.20;;;6.83;58.75;98710.19;5023833;28;20810;-78
2021/04/18 08:42:29;;;;;;;14.40;7.13;;;7.80;72.90;;;7.34;57.53;98717.72;5022258;28;20692;-80
2021/04/18 08:44:56;;;;;;;15.03;6.90;;;8.10;72.10;;;7.39;57.42;98720.56;5022893;28;20533;-79
2021/04/18 08:47:26;;;;;;;12.60;8.07;;;8.40;71.50;;;7.16;58.13;98720.88;5020704;28;20413;-78
2021/04/18 08:49:57;;;;;;;16.25;8.13;;;8.20;71.20;;;7.12;57.93;98714.38;5019999;28;20419;-79
2021/04/18 08:52:27;;;;;;;13.98;7.65;;;8.10;71.50;;;6.93;58.11;98715.09;5021243;28;20455;-78
2021/04/18 08:54:55;;;;;;;15.65;7.93;;;8.00;71.50;;;6.77;58.74;98718.03;5020140;28;20421;-78
2021/04/18 08:57:25;;;;;;;13.82;6.75;;;7.90;71.90;;;6.68;58.90;98713.97;5019388;28;20435;-77
2021/04/18 08:59:55;;;;;;;15.95;8.13;;;7.80;72.50;;;6.75;59.14;98717.44;5019034;28;20648;-78
2021/04/18 09:02:22;;;;;;;12.77;7.30;;;7.80;73.00;;;7.11;58.09;98718.03;5017899;28;20439;-78
2021/04/18 09:04:53;;;;;;;11.77;6.82;;;8.00;72.30;;;7.18;57.71;98718.88;5021290;28;20436;-79
2021/04/18 09:07:28;;;;;;;12.13;7.60;;;8.10;71.80;;;7.17;58.00;98719.88;5022954;28;20503;-76
2021/04/18 09:09:58;;;;;;;11.60;7.43;;;8.20;71.50;;;7.02;58.32;98716.56;5023987;28;20497;-77
2021/04/18 09:12:25;;;;;;;13.63;7.13;;;8.10;71.50;;;6.94;58.11;98719.34;5021812;28;20507;-77
2021/04/18 09:14:52;;;;;;;11.80;7.47;;;8.00;71.50;;;6.94;58.22;98721.97;5019951;28;20405;-78
2021/04/18 09:17:22;;;;;;;16.17;8.40;;;7.90;71.50;;;6.73;58.59;98715.00;5020785;28;20476;-77
2021/04/18 09:19:49;;;;;;;13.10;7.75;;;7.80;72.50;;;6.92;58.42;98716.91;5020019;28;20704;-77
2021/04/18 09:22:18;;;;;;;13.10;8.18;;;7.90;72.30;;;6.91;58.28;98712.69;5000092;28;20429;-77
2021/04/18 09:24:52;;;;;;;14.70;8.17;;;8.00;72.20;;;6.87;58.87;98713.25;5019677;28;20440;-79
2021/04/18 09:27:21;;;;;;;16.63;8.88;;;7.90;72.50;;;6.96;58.60;98717.34;5020482;28;20417;-78
2021/04/18 09:29:52;;;;;;;15.20;8.68;;;8.00;72.30;;;7.11;58.48;98718.03;5022026;28;20491;-79
2021/04/18 09:32:20;;;;;;;14.02;8.40;;;8.10;72.50;;;7.24;58.18;98722.53;5032219;28;20439;-79
2021/04/18 09:34:47;;;;;;;13.45;7.95;;;8.20;71.80;;;7.14;58.20;98722.09;5035847;28;20389;-79
2021/04/18 09:37:21;;;;;;;14.48;7.88;;;8.20;71.40;;;7.49;57.67;98725.44;5033612;28;20525;-78
2021/04/18 09:39:51;;;;;;;15.57;7.78;;;8.30;71.80;;;7.62;57.19;98728.13;5029442;28;20413;-78
2021/04/18 09:42:19;;;;;;;12.32;7.60;;;8.60;71.00;;;7.57;57.36;98718.19;5030826;28;20417;-80
2021/04/18 09:44:47;;;;;;;15.95;8.88;;;8.50;70.70;;;7.52;57.61;98727.72;5015318;28;20421;-77
2021/04/18 09:47:22;;;;;;;13.17;8.33;;;8.50;70.60;;;7.49;57.65;98723.63;5007746;28;20446;-78
2021/04/18 09:49:56;;;;;;;17.00;8.52;;;8.50;71.00;;;7.45;57.87;98724.22;5021160;28;20512;-77
2021/04/18 09:52:37;;;;;;;20.55;9.82;;;8.40;71.10;;;7.42;57.43;98728.06;5020332;28;20686;-77
2021/04/18 09:55:17;;;;;;;17.90;8.32;;;8.40;71.00;;;7.55;57.64;98719.38;5019762;28;20405;-77
2021/04/18 09:57:49;;;;;;;16.73;8.80;;;8.50;71.20;;;7.60;57.28;98724.84;5017815;28;20416;-78
2021/04/18 10:00:36;;;;;;;14.90;9.02;;;8.60;70.80;;;7.70;56.83;98723.47;5018416;28;20467;-78
2021/04/18 10:03:14;;;;;;;13.77;8.73;;;8.70;70.50;;;7.73;56.25;98727.56;5014428;28;20428;-77
2021/04/18 10:05:58;;;;;;;15.73;8.35;;;8.70;69.30;;;7.82;55.89;98731.59;5017341;28;20507;-78
2021/04/18 10:08:26;;;;;;;15.97;8.77;;;8.80;69.20;;;7.70;56.36;98727.94;5000381;28;20493;-78
2021/04/18 10:10:56;;;;;;;15.00;8.75;;;8.70;69.30;;;7.70;56.11;98723.47;5017979;28;20413;-78
2021/04/18 10:13:42;;;;;;;12.75;8.43;;;8.70;69.20;;;7.82;55.16;98722.91;5017746;28;20436;-77
2021/04/18 10:16:10;;;;;;;13.52;9.27;;;9.00;67.90;;;7.52;57.38;98719.81;5017617;28;20416;-77
2021/04/18 10:18:40;;;;;;;17.40;9.02;;;8.70;69.60;;;7.10;57.81;98720.84;5015625;28;20695;-77
2021/04/18 10:21:17;;;;;;;20.30;9.23;;;8.30;71.00;;;7.46;56.94;98718.75;4999600;28;20452;-77
2021/04/18 10:23:44;;;;;;;22.05;12.60;;;8.40;70.80;;;7.83;55.97;98717.41;5019129;28;20707;-79
2021/04/18 10:26:11;;;;;;;13.98;9.05;;;8.70;69.90;;;7.91;55.44;98717.22;5022665;28;20432;-77
2021/04/18 10:28:37;;;;;;;19.80;10.23;;;8.90;69.40;;;8.10;55.19;98713.00;5018760;28;20452;-77
2021/04/18 10:31:06;;;;;;;18.58;10.50;;;9.10;68.40;;;8.24;54.71;98708.53;5017761;28;20714;-77
2021/04/18 10:33:32;;;;;;;16.10;9.70;;;9.20;67.80;;;8.55;53.44;98714.00;5016760;28;20412;-77
2021/04/18 10:36:00;;;;;;;16.73;9.80;;;9.30;66.90;;;8.64;53.55;98709.34;5033350;28;20414;-77